sensor_id;sensor_type;location;lat;lon;timestamp;P1;durP1;ratioP1;P2;durP2;ratioP2
72065;SDS011;59939;52.516;13.420;2023-01-08T00:03:03;11.97;;;5.10;;
72065;SDS011;59939;52.516;13.420;2023-01-08T00:13:14;9.73;;;3.43;;
72065;SDS011;59939;52.516;13.420;2023-01-08T00:16:18;12.27;;;5.57;;
72065;SDS011;59939;52.516;13.420;2023-01-08T00:19:23;11.80;;;4.20;;
72065;SDS011;59939;52.516;13.420;2023-01-08T00:22:30;11.23;;;4.50;;
72065;SDS011;59939;52.516;13.420;2023-01-08T00:25:36;11.97;;;4.57;;
72065;SDS011;59939;52.516;13.420;2023-01-08T00:28:40;10.40;;;4.63;;
72065;SDS011;59939;52.516;13.420;2023-01-08T00:31:47;12.47;;;4.70;;
72065;SDS011;59939;52.516;13.420;2023-01-08T00:34:51;13.43;;;5.10;;
72065;SDS011;59939;52.516;13.420;2023-01-08T00:38:04;10.80;;;4.80;;
72065;SDS011;59939;52.516;13.420;2023-01-08T00:41:08;12.47;;;5.17;;
72065;SDS011;59939;52.516;13.420;2023-01-08T00:44:13;12.80;;;5.83;;
72065;SDS011;59939;52.516;13.420;2023-01-08T00:47:16;12.00;;;5.10;;
72065;SDS011;59939;52.516;13.420;2023-01-08T00:50:20;14.07;;;5.43;;
72065;SDS011;59939;52.516;13.420;2023-01-08T00:53:31;13.13;;;4.50;;
72065;SDS011;59939;52.516;13.420;2023-01-08T00:56:37;13.30;;;5.80;;
72065;SDS011;59939;52.516;13.420;2023-01-08T00:59:41;13.83;;;5.53;;
72065;SDS011;59939;52.516;13.420;2023-01-08T01:02:45;13.60;;;5.47;;
72065;SDS011;59939;52.516;13.420;2023-01-08T01:05:48;11.37;;;5.13;;
72065;SDS011;59939;52.516;13.420;2023-01-08T01:08:52;13.30;;;5.73;;
72065;SDS011;59939;52.516;13.420;2023-01-08T01:11:56;10.03;;;4.53;;
72065;SDS011;59939;52.516;13.420;2023-01-08T01:15:14;13.83;;;5.67;;
72065;SDS011;59939;52.516;13.420;2023-01-08T01:18:20;12.73;;;4.57;;
72065;SDS011;59939;52.516;13.420;2023-01-08T01:21:25;12.20;;;4.80;;
72065;SDS011;59939;52.516;13.420;2023-01-08T01:24:29;14.53;;;6.10;;
72065;SDS011;59939;52.516;13.420;2023-01-08T01:27:32;13.90;;;5.83;;
72065;SDS011;59939;52.516;13.420;2023-01-08T01:30:36;14.30;;;6.23;;
72065;SDS011;59939;52.516;13.420;2023-01-08T01:33:40;12.00;;;4.97;;
72065;SDS011;59939;52.516;13.420;2023-01-08T01:36:47;10.23;;;4.53;;
72065;SDS011;59939;52.516;13.420;2023-01-08T01:39:50;12.00;;;4.93;;
72065;SDS011;59939;52.516;13.420;2023-01-08T01:42:57;13.27;;;5.23;;
72065;SDS011;59939;52.516;13.420;2023-01-08T01:49:27;13.17;;;5.73;;
72065;SDS011;59939;52.516;13.420;2023-01-08T01:52:32;15.97;;;7.13;;
72065;SDS011;59939;52.516;13.420;2023-01-08T01:55:39;11.37;;;5.10;;
72065;SDS011;59939;52.516;13.420;2023-01-08T01:58:50;14.10;;;6.70;;
72065;SDS011;59939;52.516;13.420;2023-01-08T02:01:54;16.73;;;6.20;;
72065;SDS011;59939;52.516;13.420;2023-01-08T02:04:59;17.60;;;6.30;;
72065;SDS011;59939;52.516;13.420;2023-01-08T02:08:10;14.30;;;6.47;;
72065;SDS011;59939;52.516;13.420;2023-01-08T02:11:15;15.03;;;6.57;;
72065;SDS011;59939;52.516;13.420;2023-01-08T02:14:25;15.70;;;6.33;;
72065;SDS011;59939;52.516;13.420;2023-01-08T02:17:33;13.70;;;6.63;;
72065;SDS011;59939;52.516;13.420;2023-01-08T02:20:49;15.30;;;8.17;;
72065;SDS011;59939;52.516;13.420;2023-01-08T02:23:57;14.83;;;6.83;;
72065;SDS011;59939;52.516;13.420;2023-01-08T02:27:03;14.67;;;6.37;;
72065;SDS011;59939;52.516;13.420;2023-01-08T02:30:15;14.80;;;7.30;;
72065;SDS011;59939;52.516;13.420;2023-01-08T02:33:21;11.93;;;5.67;;
72065;SDS011;59939;52.516;13.420;2023-01-08T02:36:39;15.93;;;7.77;;
72065;SDS011;59939;52.516;13.420;2023-01-08T02:39:54;16.23;;;6.70;;
72065;SDS011;59939;52.516;13.420;2023-01-08T02:43:08;15.20;;;7.47;;
72065;SDS011;59939;52.516;13.420;2023-01-08T02:46:13;15.80;;;8.07;;
72065;SDS011;59939;52.516;13.420;2023-01-08T02:49:20;16.03;;;7.27;;
72065;SDS011;59939;52.516;13.420;2023-01-08T02:52:26;16.03;;;7.67;;
72065;SDS011;59939;52.516;13.420;2023-01-08T02:55:33;15.67;;;8.03;;
72065;SDS011;59939;52.516;13.420;2023-01-08T02:58:38;16.47;;;7.37;;
72065;SDS011;59939;52.516;13.420;2023-01-08T03:01:42;17.23;;;8.30;;
72065;SDS011;59939;52.516;13.420;2023-01-08T03:04:53;18.97;;;8.80;;
72065;SDS011;59939;52.516;13.420;2023-01-08T03:08:01;17.40;;;8.87;;
72065;SDS011;59939;52.516;13.420;2023-01-08T03:11:06;17.13;;;8.47;;
72065;SDS011;59939;52.516;13.420;2023-01-08T03:14:24;16.57;;;8.17;;
72065;SDS011;59939;52.516;13.420;2023-01-08T03:17:33;17.40;;;8.57;;
72065;SDS011;59939;52.516;13.420;2023-01-08T03:20:38;15.23;;;7.50;;
72065;SDS011;59939;52.516;13.420;2023-01-08T03:23:42;18.17;;;6.13;;
72065;SDS011;59939;52.516;13.420;2023-01-08T03:26:52;18.50;;;9.10;;
72065;SDS011;59939;52.516;13.420;2023-01-08T03:30:00;17.23;;;7.33;;
72065;SDS011;59939;52.516;13.420;2023-01-08T03:33:05;15.33;;;6.83;;
72065;SDS011;59939;52.516;13.420;2023-01-08T03:36:12;20.33;;;9.33;;
72065;SDS011;59939;52.516;13.420;2023-01-08T03:39:25;18.57;;;8.97;;
72065;SDS011;59939;52.516;13.420;2023-01-08T03:42:32;16.73;;;9.37;;
72065;SDS011;59939;52.516;13.420;2023-01-08T03:45:47;17.93;;;8.83;;
72065;SDS011;59939;52.516;13.420;2023-01-08T03:48:52;18.47;;;9.33;;
72065;SDS011;59939;52.516;13.420;2023-01-08T03:51:57;17.77;;;8.70;;
72065;SDS011;59939;52.516;13.420;2023-01-08T03:55:08;16.60;;;8.63;;
72065;SDS011;59939;52.516;13.420;2023-01-08T03:58:13;19.17;;;9.00;;
72065;SDS011;59939;52.516;13.420;2023-01-08T04:01:19;17.70;;;7.53;;
72065;SDS011;59939;52.516;13.420;2023-01-08T04:04:25;17.33;;;9.27;;
72065;SDS011;59939;52.516;13.420;2023-01-08T04:07:29;18.23;;;8.73;;
72065;SDS011;59939;52.516;13.420;2023-01-08T04:10:33;19.47;;;8.93;;
72065;SDS011;59939;52.516;13.420;2023-01-08T04:13:37;17.43;;;8.57;;
72065;SDS011;59939;52.516;13.420;2023-01-08T04:16:44;14.90;;;7.77;;
72065;SDS011;59939;52.516;13.420;2023-01-08T04:19:48;18.87;;;9.20;;
72065;SDS011;59939;52.516;13.420;2023-01-08T04:22:59;19.80;;;9.67;;
72065;SDS011;59939;52.516;13.420;2023-01-08T04:26:03;17.53;;;9.00;;
72065;SDS011;59939;52.516;13.420;2023-01-08T04:29:07;19.63;;;8.80;;
72065;SDS011;59939;52.516;13.420;2023-01-08T04:32:12;17.07;;;9.00;;
72065;SDS011;59939;52.516;13.420;2023-01-08T04:35:16;17.63;;;9.03;;
72065;SDS011;59939;52.516;13.420;2023-01-08T04:38:20;17.73;;;8.33;;
72065;SDS011;59939;52.516;13.420;2023-01-08T04:41:24;19.03;;;8.77;;
72065;SDS011;59939;52.516;13.420;2023-01-08T04:44:27;16.77;;;9.40;;
72065;SDS011;59939;52.516;13.420;2023-01-08T04:47:31;17.93;;;8.80;;
72065;SDS011;59939;52.516;13.420;2023-01-08T04:50:34;17.27;;;8.60;;
72065;SDS011;59939;52.516;13.420;2023-01-08T04:53:38;17.83;;;9.47;;
72065;SDS011;59939;52.516;13.420;2023-01-08T04:56:43;17.70;;;8.03;;
72065;SDS011;59939;52.516;13.420;2023-01-08T04:59:47;17.97;;;8.00;;
72065;SDS011;59939;52.516;13.420;2023-01-08T05:02:51;18.50;;;9.23;;
72065;SDS011;59939;52.516;13.420;2023-01-08T05:05:59;15.07;;;7.37;;
72065;SDS011;59939;52.516;13.420;2023-01-08T05:09:05;15.77;;;6.83;;
72065;SDS011;59939;52.516;13.420;2023-01-08T05:12:16;17.90;;;8.37;;
72065;SDS011;59939;52.516;13.420;2023-01-08T05:15:23;19.00;;;9.10;;
72065;SDS011;59939;52.516;13.420;2023-01-08T05:18:27;14.77;;;7.33;;
72065;SDS011;59939;52.516;13.420;2023-01-08T05:21:34;13.40;;;6.43;;
72065;SDS011;59939;52.516;13.420;2023-01-08T05:24:37;17.53;;;8.57;;
72065;SDS011;59939;52.516;13.420;2023-01-08T05:27:41;20.53;;;9.87;;
72065;SDS011;59939;52.516;13.420;2023-01-08T05:30:48;15.37;;;7.50;;
72065;SDS011;59939;52.516;13.420;2023-01-08T05:33:52;13.03;;;6.53;;
72065;SDS011;59939;52.516;13.420;2023-01-08T05:37:03;18.03;;;9.20;;
72065;SDS011;59939;52.516;13.420;2023-01-08T05:40:07;17.57;;;8.53;;
72065;SDS011;59939;52.516;13.420;2023-01-08T05:43:11;16.63;;;8.70;;
72065;SDS011;59939;52.516;13.420;2023-01-08T05:46:15;18.40;;;8.43;;
72065;SDS011;59939;52.516;13.420;2023-01-08T05:52:57;16.97;;;8.40;;
72065;SDS011;59939;52.516;13.420;2023-01-08T05:56:01;17.40;;;8.23;;
72065;SDS011;59939;52.516;13.420;2023-01-08T05:59:10;15.43;;;7.40;;
72065;SDS011;59939;52.516;13.420;2023-01-08T06:02:14;15.00;;;6.73;;
72065;SDS011;59939;52.516;13.420;2023-01-08T06:05:18;15.70;;;7.13;;
72065;SDS011;59939;52.516;13.420;2023-01-08T06:08:23;14.90;;;7.23;;
72065;SDS011;59939;52.516;13.420;2023-01-08T06:11:27;17.60;;;8.57;;
72065;SDS011;59939;52.516;13.420;2023-01-08T06:18:10;15.00;;;6.67;;
72065;SDS011;59939;52.516;13.420;2023-01-08T06:21:15;15.60;;;7.33;;
72065;SDS011;59939;52.516;13.420;2023-01-08T06:24:19;15.40;;;6.33;;
72065;SDS011;59939;52.516;13.420;2023-01-08T06:27:22;15.67;;;7.20;;
72065;SDS011;59939;52.516;13.420;2023-01-08T06:30:26;16.53;;;6.70;;
72065;SDS011;59939;52.516;13.420;2023-01-08T06:33:31;16.47;;;7.83;;
72065;SDS011;59939;52.516;13.420;2023-01-08T06:36:36;15.70;;;6.67;;
72065;SDS011;59939;52.516;13.420;2023-01-08T06:39:43;13.70;;;6.00;;
72065;SDS011;59939;52.516;13.420;2023-01-08T06:43:00;14.87;;;6.33;;
72065;SDS011;59939;52.516;13.420;2023-01-08T06:46:17;16.60;;;7.50;;
72065;SDS011;59939;52.516;13.420;2023-01-08T06:49:24;13.83;;;6.37;;
72065;SDS011;59939;52.516;13.420;2023-01-08T06:52:28;15.30;;;5.93;;
72065;SDS011;59939;52.516;13.420;2023-01-08T06:55:31;14.47;;;6.07;;
72065;SDS011;59939;52.516;13.420;2023-01-08T06:58:35;14.63;;;6.77;;
72065;SDS011;59939;52.516;13.420;2023-01-08T07:01:39;13.47;;;6.00;;
72065;SDS011;59939;52.516;13.420;2023-01-08T07:04:43;14.50;;;6.17;;
72065;SDS011;59939;52.516;13.420;2023-01-08T07:07:47;10.67;;;5.30;;
72065;SDS011;59939;52.516;13.420;2023-01-08T07:10:51;8.33;;;3.77;;
72065;SDS011;59939;52.516;13.420;2023-01-08T07:13:54;14.03;;;6.27;;
72065;SDS011;59939;52.516;13.420;2023-01-08T07:17:01;16.30;;;7.73;;
72065;SDS011;59939;52.516;13.420;2023-01-08T07:20:05;11.73;;;4.63;;
72065;SDS011;59939;52.516;13.420;2023-01-08T07:23:09;13.23;;;5.97;;
72065;SDS011;59939;52.516;13.420;2023-01-08T07:26:13;14.30;;;6.37;;
72065;SDS011;59939;52.516;13.420;2023-01-08T07:29:17;14.73;;;5.53;;
72065;SDS011;59939;52.516;13.420;2023-01-08T07:32:21;15.83;;;7.60;;
72065;SDS011;59939;52.516;13.420;2023-01-08T07:35:26;11.70;;;5.37;;
72065;SDS011;59939;52.516;13.420;2023-01-08T07:38:31;12.20;;;5.10;;
72065;SDS011;59939;52.516;13.420;2023-01-08T07:41:35;10.97;;;4.43;;
72065;SDS011;59939;52.516;13.420;2023-01-08T07:44:38;13.43;;;6.93;;
72065;SDS011;59939;52.516;13.420;2023-01-08T07:47:45;13.33;;;6.60;;
72065;SDS011;59939;52.516;13.420;2023-01-08T07:50:49;12.97;;;7.60;;
72065;SDS011;59939;52.516;13.420;2023-01-08T07:53:53;15.70;;;9.60;;
72065;SDS011;59939;52.516;13.420;2023-01-08T07:56:59;14.20;;;8.87;;
72065;SDS011;59939;52.516;13.420;2023-01-08T08:00:11;15.47;;;8.53;;
72065;SDS011;59939;52.516;13.420;2023-01-08T08:03:17;17.07;;;10.13;;
72065;SDS011;59939;52.516;13.420;2023-01-08T08:06:34;15.83;;;9.37;;
72065;SDS011;59939;52.516;13.420;2023-01-08T08:09:39;18.17;;;11.10;;
72065;SDS011;59939;52.516;13.420;2023-01-08T08:12:45;16.60;;;11.07;;
72065;SDS011;59939;52.516;13.420;2023-01-08T08:15:51;16.13;;;11.33;;
72065;SDS011;59939;52.516;13.420;2023-01-08T08:18:57;15.20;;;11.30;;
72065;SDS011;59939;52.516;13.420;2023-01-08T08:22:11;14.93;;;10.40;;
72065;SDS011;59939;52.516;13.420;2023-01-08T08:25:15;14.37;;;11.27;;
72065;SDS011;59939;52.516;13.420;2023-01-08T08:28:32;16.03;;;11.77;;
72065;SDS011;59939;52.516;13.420;2023-01-08T08:31:39;13.40;;;9.57;;
72065;SDS011;59939;52.516;13.420;2023-01-08T08:34:43;13.63;;;9.53;;
72065;SDS011;59939;52.516;13.420;2023-01-08T08:37:47;14.53;;;10.70;;
72065;SDS011;59939;52.516;13.420;2023-01-08T08:40:53;16.07;;;11.10;;
72065;SDS011;59939;52.516;13.420;2023-01-08T08:43:59;17.43;;;11.87;;
72065;SDS011;59939;52.516;13.420;2023-01-08T08:47:05;15.43;;;11.60;;
72065;SDS011;59939;52.516;13.420;2023-01-08T08:50:09;16.63;;;10.40;;
72065;SDS011;59939;52.516;13.420;2023-01-08T08:53:13;16.43;;;11.00;;
72065;SDS011;59939;52.516;13.420;2023-01-08T08:56:17;16.70;;;10.23;;
72065;SDS011;59939;52.516;13.420;2023-01-08T08:59:21;13.23;;;9.10;;
72065;SDS011;59939;52.516;13.420;2023-01-08T09:02:27;15.17;;;9.63;;
72065;SDS011;59939;52.516;13.420;2023-01-08T09:05:35;14.93;;;10.63;;
72065;SDS011;59939;52.516;13.420;2023-01-08T09:08:39;14.90;;;9.87;;
72065;SDS011;59939;52.516;13.420;2023-01-08T09:11:43;14.50;;;9.50;;
72065;SDS011;59939;52.516;13.420;2023-01-08T09:14:49;13.53;;;9.80;;
72065;SDS011;59939;52.516;13.420;2023-01-08T09:17:54;13.47;;;8.53;;
72065;SDS011;59939;52.516;13.420;2023-01-08T09:21:02;15.00;;;10.20;;
72065;SDS011;59939;52.516;13.420;2023-01-08T09:24:20;14.23;;;8.87;;
72065;SDS011;59939;52.516;13.420;2023-01-08T09:27:23;14.50;;;8.07;;
72065;SDS011;59939;52.516;13.420;2023-01-08T09:30:27;15.00;;;8.20;;
72065;SDS011;59939;52.516;13.420;2023-01-08T09:33:31;13.43;;;5.93;;
72065;SDS011;59939;52.516;13.420;2023-01-08T09:36:39;12.47;;;6.13;;
72065;SDS011;59939;52.516;13.420;2023-01-08T09:39:43;14.83;;;6.93;;
72065;SDS011;59939;52.516;13.420;2023-01-08T09:42:57;12.13;;;5.70;;
72065;SDS011;59939;52.516;13.420;2023-01-08T09:46:10;12.40;;;7.03;;
72065;SDS011;59939;52.516;13.420;2023-01-08T09:49:21;11.67;;;6.47;;
72065;SDS011;59939;52.516;13.420;2023-01-08T09:52:30;11.60;;;6.60;;
72065;SDS011;59939;52.516;13.420;2023-01-08T09:55:41;10.37;;;5.73;;
72065;SDS011;59939;52.516;13.420;2023-01-08T09:58:58;11.97;;;6.53;;
72065;SDS011;59939;52.516;13.420;2023-01-08T10:02:03;12.37;;;7.30;;
72065;SDS011;59939;52.516;13.420;2023-01-08T10:05:14;11.83;;;6.30;;
72065;SDS011;59939;52.516;13.420;2023-01-08T10:08:18;13.53;;;8.50;;
72065;SDS011;59939;52.516;13.420;2023-01-08T10:11:32;15.07;;;8.77;;
72065;SDS011;59939;52.516;13.420;2023-01-08T10:14:48;11.60;;;6.70;;
72065;SDS011;59939;52.516;13.420;2023-01-08T10:18:03;13.13;;;8.53;;
72065;SDS011;59939;52.516;13.420;2023-01-08T10:21:09;12.47;;;8.27;;
72065;SDS011;59939;52.516;13.420;2023-01-08T10:24:16;14.60;;;10.03;;
72065;SDS011;59939;52.516;13.420;2023-01-08T10:27:24;24.60;;;22.77;;
72065;SDS011;59939;52.516;13.420;2023-01-08T10:33:39;52.87;;;49.93;;
72065;SDS011;59939;52.516;13.420;2023-01-08T10:36:46;23.27;;;21.40;;
72065;SDS011;59939;52.516;13.420;2023-01-08T10:39:50;19.90;;;18.00;;
72065;SDS011;59939;52.516;13.420;2023-01-08T10:42:55;29.07;;;26.77;;
72065;SDS011;59939;52.516;13.420;2023-01-08T10:46:04;29.47;;;27.17;;
72065;SDS011;59939;52.516;13.420;2023-01-08T10:49:26;34.23;;;31.33;;
72065;SDS011;59939;52.516;13.420;2023-01-08T10:52:33;31.23;;;28.83;;
72065;SDS011;59939;52.516;13.420;2023-01-08T10:55:41;32.57;;;30.33;;
72065;SDS011;59939;52.516;13.420;2023-01-08T10:58:44;52.30;;;49.47;;
72065;SDS011;59939;52.516;13.420;2023-01-08T11:01:50;55.77;;;52.57;;
72065;SDS011;59939;52.516;13.420;2023-01-08T11:04:55;51.07;;;48.17;;
72065;SDS011;59939;52.516;13.420;2023-01-08T11:08:01;49.40;;;46.33;;
72065;SDS011;59939;52.516;13.420;2023-01-08T11:11:08;51.60;;;48.40;;
72065;SDS011;59939;52.516;13.420;2023-01-08T11:17:26;47.97;;;45.07;;
72065;SDS011;59939;52.516;13.420;2023-01-08T11:20:30;50.53;;;47.47;;
72065;SDS011;59939;52.516;13.420;2023-01-08T11:23:34;51.90;;;48.90;;
72065;SDS011;59939;52.516;13.420;2023-01-08T11:26:51;49.07;;;46.07;;
72065;SDS011;59939;52.516;13.420;2023-01-08T11:30:10;47.47;;;44.63;;
72065;SDS011;59939;52.516;13.420;2023-01-08T11:33:17;49.80;;;46.87;;
72065;SDS011;59939;52.516;13.420;2023-01-08T11:36:32;48.93;;;45.77;;
72065;SDS011;59939;52.516;13.420;2023-01-08T11:39:40;49.83;;;46.83;;
72065;SDS011;59939;52.516;13.420;2023-01-08T11:46:23;46.63;;;43.63;;
72065;SDS011;59939;52.516;13.420;2023-01-08T11:52:42;45.97;;;42.87;;
72065;SDS011;59939;52.516;13.420;2023-01-08T11:59:07;40.50;;;37.87;;
72065;SDS011;59939;52.516;13.420;2023-01-08T12:02:28;42.70;;;40.07;;
72065;SDS011;59939;52.516;13.420;2023-01-08T12:12:24;38.53;;;36.07;;
72065;SDS011;59939;52.516;13.420;2023-01-08T12:22:22;41.67;;;39.17;;
72065;SDS011;59939;52.516;13.420;2023-01-08T12:25:30;44.87;;;42.10;;
72065;SDS011;59939;52.516;13.420;2023-01-08T12:32:12;57.47;;;54.17;;
72065;SDS011;59939;52.516;13.420;2023-01-08T12:35:33;49.70;;;46.87;;
72065;SDS011;59939;52.516;13.420;2023-01-08T12:38:39;43.53;;;40.67;;
72065;SDS011;59939;52.516;13.420;2023-01-08T12:41:53;37.53;;;35.03;;
72065;SDS011;59939;52.516;13.420;2023-01-08T12:44:59;36.80;;;34.30;;
72065;SDS011;59939;52.516;13.420;2023-01-08T12:48:09;32.43;;;29.93;;
72065;SDS011;59939;52.516;13.420;2023-01-08T12:51:17;26.27;;;24.17;;
72065;SDS011;59939;52.516;13.420;2023-01-08T12:54:29;24.97;;;22.87;;
72065;SDS011;59939;52.516;13.420;2023-01-08T13:01:15;17.00;;;11.80;;
72065;SDS011;59939;52.516;13.420;2023-01-08T13:04:42;14.20;;;8.80;;
72065;SDS011;59939;52.516;13.420;2023-01-08T13:07:56;16.27;;;9.57;;
72065;SDS011;59939;52.516;13.420;2023-01-08T13:11:01;13.20;;;7.23;;
72065;SDS011;59939;52.516;13.420;2023-01-08T13:14:08;15.10;;;6.80;;
72065;SDS011;59939;52.516;13.420;2023-01-08T13:17:18;16.03;;;9.10;;
72065;SDS011;59939;52.516;13.420;2023-01-08T13:20:25;15.77;;;8.57;;
72065;SDS011;59939;52.516;13.420;2023-01-08T13:23:33;12.10;;;7.17;;
72065;SDS011;59939;52.516;13.420;2023-01-08T13:26:46;16.37;;;11.13;;
72065;SDS011;59939;52.516;13.420;2023-01-08T13:29:52;15.77;;;12.43;;
72065;SDS011;59939;52.516;13.420;2023-01-08T13:32:59;19.17;;;14.93;;
72065;SDS011;59939;52.516;13.420;2023-01-08T13:42:21;15.57;;;12.93;;
72065;SDS011;59939;52.516;13.420;2023-01-08T13:45:26;17.70;;;15.57;;
72065;SDS011;59939;52.516;13.420;2023-01-08T13:48:47;17.73;;;15.67;;
72065;SDS011;59939;52.516;13.420;2023-01-08T13:51:51;19.33;;;17.43;;
72065;SDS011;59939;52.516;13.420;2023-01-08T13:54:55;17.10;;;15.17;;
72065;SDS011;59939;52.516;13.420;2023-01-08T13:58:00;25.53;;;23.33;;
72065;SDS011;59939;52.516;13.420;2023-01-08T14:01:05;22.50;;;20.23;;
72065;SDS011;59939;52.516;13.420;2023-01-08T14:04:18;21.70;;;19.57;;
72065;SDS011;59939;52.516;13.420;2023-01-08T14:07:22;19.10;;;17.20;;
72065;SDS011;59939;52.516;13.420;2023-01-08T14:10:27;20.33;;;18.13;;
72065;SDS011;59939;52.516;13.420;2023-01-08T14:13:32;43.53;;;40.57;;
72065;SDS011;59939;52.516;13.420;2023-01-08T14:16:38;30.60;;;28.17;;
72065;SDS011;59939;52.516;13.420;2023-01-08T14:19:57;26.20;;;23.87;;
72065;SDS011;59939;52.516;13.420;2023-01-08T14:23:10;23.27;;;21.27;;
72065;SDS011;59939;52.516;13.420;2023-01-08T14:26:32;22.57;;;20.37;;
72065;SDS011;59939;52.516;13.420;2023-01-08T14:29:43;26.90;;;24.43;;
72065;SDS011;59939;52.516;13.420;2023-01-08T14:32:55;25.50;;;23.10;;
72065;SDS011;59939;52.516;13.420;2023-01-08T14:36:03;25.40;;;22.87;;
72065;SDS011;59939;52.516;13.420;2023-01-08T14:39:09;22.83;;;20.63;;
72065;SDS011;59939;52.516;13.420;2023-01-08T14:42:32;24.90;;;22.00;;
72065;SDS011;59939;52.516;13.420;2023-01-08T14:45:53;19.63;;;17.83;;
72065;SDS011;59939;52.516;13.420;2023-01-08T14:48:57;22.10;;;19.80;;
72065;SDS011;59939;52.516;13.420;2023-01-08T14:52:01;24.13;;;21.67;;
72065;SDS011;59939;52.516;13.420;2023-01-08T14:55:12;24.00;;;21.67;;
72065;SDS011;59939;52.516;13.420;2023-01-08T14:58:17;24.73;;;22.33;;
72065;SDS011;59939;52.516;13.420;2023-01-08T15:01:24;26.20;;;23.50;;
72065;SDS011;59939;52.516;13.420;2023-01-08T15:04:30;27.10;;;24.30;;
72065;SDS011;59939;52.516;13.420;2023-01-08T15:07:35;26.83;;;23.93;;
72065;SDS011;59939;52.516;13.420;2023-01-08T15:11:08;49.53;;;46.03;;
72065;SDS011;59939;52.516;13.420;2023-01-08T15:14:19;47.43;;;43.80;;
72065;SDS011;59939;52.516;13.420;2023-01-08T15:17:26;50.70;;;47.13;;
72065;SDS011;59939;52.516;13.420;2023-01-08T15:20:33;51.33;;;47.73;;
72065;SDS011;59939;52.516;13.420;2023-01-08T15:23:46;49.10;;;45.80;;
72065;SDS011;59939;52.516;13.420;2023-01-08T15:26:51;52.27;;;48.47;;
72065;SDS011;59939;52.516;13.420;2023-01-08T15:29:56;46.70;;;43.03;;
72065;SDS011;59939;52.516;13.420;2023-01-08T15:33:04;49.73;;;46.23;;
72065;SDS011;59939;52.516;13.420;2023-01-08T15:36:22;48.40;;;44.83;;
72065;SDS011;59939;52.516;13.420;2023-01-08T15:39:26;43.73;;;40.40;;
72065;SDS011;59939;52.516;13.420;2023-01-08T15:42:31;43.30;;;39.73;;
72065;SDS011;59939;52.516;13.420;2023-01-08T15:45:54;39.07;;;36.13;;
72065;SDS011;59939;52.516;13.420;2023-01-08T15:49:00;35.47;;;32.87;;
72065;SDS011;59939;52.516;13.420;2023-01-08T15:52:04;40.73;;;37.43;;
72065;SDS011;59939;52.516;13.420;2023-01-08T15:58:40;35.33;;;32.43;;
72065;SDS011;59939;52.516;13.420;2023-01-08T16:01:44;34.23;;;31.23;;
72065;SDS011;59939;52.516;13.420;2023-01-08T16:04:55;33.17;;;30.43;;
72065;SDS011;59939;52.516;13.420;2023-01-08T16:07:59;33.63;;;30.77;;
72065;SDS011;59939;52.516;13.420;2023-01-08T16:11:05;34.73;;;31.40;;
72065;SDS011;59939;52.516;13.420;2023-01-08T16:14:09;28.70;;;25.90;;
72065;SDS011;59939;52.516;13.420;2023-01-08T16:17:13;31.17;;;28.03;;
72065;SDS011;59939;52.516;13.420;2023-01-08T16:20:17;29.40;;;26.60;;
72065;SDS011;59939;52.516;13.420;2023-01-08T16:23:21;31.17;;;28.27;;
72065;SDS011;59939;52.516;13.420;2023-01-08T16:26:32;33.33;;;30.43;;
72065;SDS011;59939;52.516;13.420;2023-01-08T16:29:39;29.43;;;27.00;;
72065;SDS011;59939;52.516;13.420;2023-01-08T16:32:50;31.57;;;28.77;;
72065;SDS011;59939;52.516;13.420;2023-01-08T16:35:56;33.60;;;30.67;;
72065;SDS011;59939;52.516;13.420;2023-01-08T16:39:05;32.83;;;29.87;;
72065;SDS011;59939;52.516;13.420;2023-01-08T16:42:08;33.73;;;30.83;;
72065;SDS011;59939;52.516;13.420;2023-01-08T16:45:14;36.23;;;33.60;;
72065;SDS011;59939;52.516;13.420;2023-01-08T16:48:21;32.20;;;29.60;;
72065;SDS011;59939;52.516;13.420;2023-01-08T16:51:25;26.93;;;24.40;;
72065;SDS011;59939;52.516;13.420;2023-01-08T16:54:32;25.67;;;23.20;;
72065;SDS011;59939;52.516;13.420;2023-01-08T16:57:36;27.07;;;24.40;;
72065;SDS011;59939;52.516;13.420;2023-01-08T17:00:54;23.23;;;20.73;;
72065;SDS011;59939;52.516;13.420;2023-01-08T17:04:00;25.57;;;23.20;;
72065;SDS011;59939;52.516;13.420;2023-01-08T17:07:05;26.30;;;23.57;;
72065;SDS011;59939;52.516;13.420;2023-01-08T17:10:09;22.30;;;20.13;;
72065;SDS011;59939;52.516;13.420;2023-01-08T17:13:21;27.07;;;24.23;;
72065;SDS011;59939;52.516;13.420;2023-01-08T17:16:27;26.57;;;24.03;;
72065;SDS011;59939;52.516;13.420;2023-01-08T17:19:32;22.90;;;20.50;;
72065;SDS011;59939;52.516;13.420;2023-01-08T17:22:44;20.67;;;15.07;;
72065;SDS011;59939;52.516;13.420;2023-01-08T17:25:52;21.87;;;16.93;;
72065;SDS011;59939;52.516;13.420;2023-01-08T17:28:56;20.97;;;15.13;;
72065;SDS011;59939;52.516;13.420;2023-01-08T17:32:03;23.27;;;13.00;;
72065;SDS011;59939;52.516;13.420;2023-01-08T17:35:08;22.23;;;13.70;;
72065;SDS011;59939;52.516;13.420;2023-01-08T17:38:11;19.07;;;12.57;;
72065;SDS011;59939;52.516;13.420;2023-01-08T17:41:21;15.30;;;10.27;;
72065;SDS011;59939;52.516;13.420;2023-01-08T17:44:44;18.80;;;11.90;;
72065;SDS011;59939;52.516;13.420;2023-01-08T17:47:47;21.77;;;13.73;;
72065;SDS011;59939;52.516;13.420;2023-01-08T17:50:51;19.83;;;11.67;;
72065;SDS011;59939;52.516;13.420;2023-01-08T17:53:55;23.60;;;14.93;;
72065;SDS011;59939;52.516;13.420;2023-01-08T17:57:17;23.47;;;16.27;;
72065;SDS011;59939;52.516;13.420;2023-01-08T18:00:21;27.90;;;17.00;;
72065;SDS011;59939;52.516;13.420;2023-01-08T18:03:27;28.93;;;16.93;;
72065;SDS011;59939;52.516;13.420;2023-01-08T18:06:31;26.67;;;16.53;;
72065;SDS011;59939;52.516;13.420;2023-01-08T18:09:49;25.90;;;15.67;;
72065;SDS011;59939;52.516;13.420;2023-01-08T18:12:57;25.30;;;16.00;;
72065;SDS011;59939;52.516;13.420;2023-01-08T18:16:03;23.53;;;15.70;;
72065;SDS011;59939;52.516;13.420;2023-01-08T18:19:15;25.23;;;16.53;;
72065;SDS011;59939;52.516;13.420;2023-01-08T18:22:19;24.80;;;15.10;;
72065;SDS011;59939;52.516;13.420;2023-01-08T18:25:23;22.23;;;14.13;;
72065;SDS011;59939;52.516;13.420;2023-01-08T18:28:34;28.33;;;18.13;;
72065;SDS011;59939;52.516;13.420;2023-01-08T18:31:40;26.47;;;16.27;;
72065;SDS011;59939;52.516;13.420;2023-01-08T18:34:44;26.97;;;17.00;;
72065;SDS011;59939;52.516;13.420;2023-01-08T18:37:47;25.07;;;14.07;;
72065;SDS011;59939;52.516;13.420;2023-01-08T18:40:51;21.80;;;14.20;;
72065;SDS011;59939;52.516;13.420;2023-01-08T18:43:55;24.60;;;14.27;;
72065;SDS011;59939;52.516;13.420;2023-01-08T18:47:00;20.90;;;12.27;;
72065;SDS011;59939;52.516;13.420;2023-01-08T18:50:04;21.10;;;11.97;;
72065;SDS011;59939;52.516;13.420;2023-01-08T18:53:12;19.63;;;12.83;;
72065;SDS011;59939;52.516;13.420;2023-01-08T18:56:31;22.10;;;13.80;;
72065;SDS011;59939;52.516;13.420;2023-01-08T18:59:39;21.60;;;12.83;;
72065;SDS011;59939;52.516;13.420;2023-01-08T19:02:45;22.20;;;14.47;;
72065;SDS011;59939;52.516;13.420;2023-01-08T19:06:04;19.43;;;11.90;;
72065;SDS011;59939;52.516;13.420;2023-01-08T19:09:08;19.03;;;11.80;;
72065;SDS011;59939;52.516;13.420;2023-01-08T19:12:11;22.70;;;13.43;;
72065;SDS011;59939;52.516;13.420;2023-01-08T19:15:17;21.87;;;12.70;;